Airfield :
LOGIN :

Register | Disclaimer

   EN    FR    IT 

 










Legend :    VFR   Marginal VFR   IFR   Intensive IFR   Very Intensive IFR
Visi :
Ceiling :
>= 8 km
>= 3000ft
5 to 8 km
1000 to 3000 ft
1500m to 5 km
500 to 1000 ft
800 to 1500m
200 to 500 ft
< 800m
< 200 ft
Symbols :   Thunderstorms  Fog  Heavy snow  Heavy precipitations  Wind > 20 kt
SIGMETs :     Misc.  Thunderstorms  Icing  Turbulence  Mountain Waves  Volcanic Ashes






- Airport Elevation : 1989 ft
- IATA code : KLV


LKKV - Karlovy Vary

CURRENT METAR :
  • 281830Z 29008KT CAVOK 12/M01 Q1015

EXPIRED METARs :
  • 281800Z 30009KT CAVOK 12/M02 Q1015
  • 281730Z 30010KT CAVOK 13/M02 Q1015
  • 281700Z 29008KT CAVOK 13/M03 Q1015
  • 281630Z 29011KT 260V320 CAVOK 13/M01 Q1015
  • 281600Z 28010KT CAVOK 13/M03 Q1015

TAF TAF LKKV
Valid from the 28 at 18:00 until the 30 at 00:00 UTC


281700Z 2818/3000 28012KT CAVOK
BECMG 2818/2820 25004KT
BECMG 2900/2902 VRB02KT
TEMPO 2910/2919 31010KT 5000 SHRA SCT040TCU



MET'MAP, your aeronautical weather chart ! - Copyright ORBIFLY December 2007 - Disclaimer

ORBIFLY MET'MAP TEAM :

Programming & Development : Alexandra Zaïnal
Original concept : Baudouin d'Aumeries
Technical & hardware support : Manuel Goepfert
Assistance : Marc-Olivier Méhu

Contact : metmap@orbifly.com




SOURCES & CREDITS :

   NOAA